Currently 48°F in Moreno Valley, California, USA
48°F
50°F / 48°F
3 mph S
0.00"
Sunday, March 29, 2020 1:39 AM PDT

Moreno Valley, California Weather Summary
Last 36 Hours

Temperature Winds Hourly Humidity Dewpoint
Time Report Norm Report Norm Max Gusts Precip. Rpt. Norm Rpt. Norm Pressure
1,3Sun 01:39 AM  47.6°F  52°F  3 mph S  1 mph  4 mph  0.00"  82%  78%  42°F  45°F  30.07"
Sun 01:00 AM  48.3°F  52°F  1 mph S  1 mph  7 mph  0.00"  84%  77%  44°F  45°F  30.07"
2Sun 12:06 AM  49.7°F  53°F  calm  1 mph  5 mph  ----  84%  75%  45°F  45°F  30.07"
Sun 12:00 AM  49.6°F  53°F  calm  2 mph  6 mph  0.00"  83%  75%  45°F  45°F  30.08"
Sat 11:00 PM  50.5°F  54°F  3 mph SW  2 mph  9 mph  0.00"  86%  72%  46°F  45°F  30.08"
Sat 10:00 PM  52.0°F  56°F  4 mph NW  2 mph  9 mph  0.00"  82%  69%  46°F  46°F  30.09"
Sat 09:00 PM  53.0°F  58°F  2 mph SW  3 mph  9 mph  0.00"  72%  65%  44°F  46°F  30.08"
Sat 08:00 PM  55.1°F  60°F  3 mph W  4 mph  11 mph  0.00"  65%  61%  43°F  46°F  30.06"
Sat 07:00 PM  59.4°F  63°F  2 mph NW  5 mph  12 mph  0.00"  62%  54%  46°F  46°F  30.05"
Sat 06:00 PM  63.4°F  68°F  4 mph W  6 mph  13 mph  0.00"  54%  45%  46°F  45°F  30.05"
Sat 05:00 PM  64.7°F  71°F  1 mph SW  7 mph  11 mph  0.00"  51%  40%  46°F  44°F  30.06"
Sat 04:00 PM  64.8°F  72°F  1 mph NW  7 mph  11 mph  0.00"  51%  38%  46°F  44°F  30.08"
Sat 03:00 PM  63.9°F  72°F  calm  6 mph  10 mph  0.00"  51%  37%  45°F  43°F  30.09"
Sat 02:00 PM  62.3°F  71°F  5 mph SW  6 mph  12 mph  0.00"  49%  37%  42°F  43°F  30.13"
Sat 01:00 PM  61.1°F  69°F  4 mph SW  5 mph  11 mph  0.00"  51%  40%  42°F  43°F  30.16"
Sat 12:00 PM  59.7°F  67°F  6 mph W  4 mph  11 mph  0.00"  62%  45%  46°F  44°F  30.16"
Sat 11:00 AM  56.1°F  65°F  2 mph W  4 mph  7 mph  0.00"  64%  52%  43°F  46°F  30.18"
Sat 10:00 AM  53.9°F  61°F  3 mph W  3 mph  6 mph  0.00"  74%  61%  45°F  47°F  30.18"
Sat 09:00 AM  50.3°F  57°F  3 mph S  2 mph  5 mph  0.00"  88%  71%  47°F  47°F  30.16"
Sat 08:00 AM  46.0°F  53°F  calm  1 mph  none  0.00"  96%  78%  45°F  46°F  30.14"
Sat 07:00 AM  40.3°F  49°F  calm  1 mph  3 mph  0.00"  97%  81%  39°F  43°F  30.14"
Sat 06:00 AM  40.2°F  49°F  calm  1 mph  2 mph  0.00"  97%  81%  39°F  43°F  30.14"
Sat 05:00 AM  40.5°F  49°F  calm  1 mph  4 mph  0.00"  96%  80%  39°F  43°F  30.14"
Sat 04:00 AM  41.1°F  50°F  calm  1 mph  3 mph  0.00"  96%  80%  40°F  44°F  30.14"
Sat 03:00 AM  42.0°F  50°F  calm  1 mph  6 mph  0.00"  95%  79%  41°F  44°F  30.15"
Sat 02:00 AM  42.5°F  51°F  3 mph SE  1 mph  5 mph  0.00"  93%  78%  41°F  44°F  30.16"
Sat 01:00 AM  43.2°F  52°F  calm  1 mph  none  0.00"  91%  77%  41°F  45°F  30.16"
Sat 12:00 AM  44.0°F  53°F  calm  2 mph  none  0.00"  87%  76%  40°F  45°F  30.17"
Fri 11:00 PM  45.5°F  54°F  calm  2 mph  none  0.00"  82%  73%  40°F  45°F  30.16"
Fri 10:00 PM  47.1°F  56°F  calm  2 mph  6 mph  0.00"  77%  69%  40°F  46°F  30.17"
Fri 09:00 PM  49.6°F  58°F  calm  3 mph  10 mph  0.00"  72%  65%  41°F  46°F  30.15"
Fri 08:00 PM  51.3°F  60°F  3 mph W  4 mph  11 mph  0.00"  66%  61%  40°F  46°F  30.12"
Fri 07:00 PM  54.8°F  63°F  3 mph NW  5 mph  12 mph  0.00"  58%  53%  40°F  45°F  30.10"
Fri 06:00 PM  59.5°F  68°F  7 mph NW  6 mph  12 mph  0.00"  50%  45%  40°F  45°F  30.08"
Fri 05:00 PM  61.4°F  71°F  7 mph W  6 mph  15 mph  0.00"  48%  40%  41°F  44°F  30.06"
Fri 04:00 PM  61.9°F  72°F  4 mph W  6 mph  16 mph  0.00"  44%  38%  39°F  44°F  30.05"
Fri 03:00 PM  62.3°F  72°F  7 mph W  6 mph  15 mph  0.00"  46%  37%  40°F  43°F  30.05"
Fri 02:00 PM  60.2°F  71°F  6 mph W  6 mph  15 mph  0.00"  49%  38%  40°F  43°F  30.06"

  1. Current weather data. No green row appears if the current weather data is also the high or low for the current day.
  2. High temperature for the current day.
  3. Low temperature for the current day.

The Moreno Valley, California weather pages are a service of WeatherCurrents. Moreno Valley is located in Southern California's Inland Empire, east of Riverside and north of Perris, along the State Route 60 freeway.
Copyright ©2020  WeatherCurrents. All rights reserved. - Submit questions and comments - Privacy Policy

This page automatically refreshes every 10 minutes.